Tangata Manu — FU6420 — position and weather

sailwx.info

Track history (hours):
 
Tides and Currents Weather Stations Pressure Air Temp Water Temp Dewpoint Dewpoint Depression Visibility Wind Speed Wind Dir Waves Ship Positions

Tangata Manu

Last reported at 2018-Jun-16 15:38 UTC. Time now 2018-Jun-18 23:17 UTC.
Position N 47°21' W 003°09'.

Length 13 m.

Type: Pleasure craft. MMSI: 227458660.

Date/timePositionNaut miles runAvg speedWind from/ knotsBaromVisibWave heightAir tempDewpointWater temp
2018-Jun-16 15:38N 47°21' W 003°09'1 5.0
2018-Jun-16 15:29N 47°21' W 003°08'2 5.0
2018-Jun-16 15:00N 47°20' W 003°05'4 6.8
2018-Jun-16 14:23N 47°24' W 003°02'1 2.3
2018-Jun-16 13:57N 47°24' W 003°01'2 4.6
2018-Jun-16 13:26N 47°24' W 002°58'0 0.1
2018-Jun-16 10:46N 47°24' W 002°57'0 0.0
2018-Jun-16 10:25N 47°24' W 002°57'0 0.0
2018-Jun-16 09:55N 47°24' W 002°57'1 1.8
2018-Jun-16 09:30N 47°23' W 002°56'3 3.1
2018-Jun-16 08:35N 47°22' W 002°60'1 7.3
2018-Jun-16 08:30N 47°22' W 003°01'3 6.9
2018-Jun-16 08:00N 47°22' W 003°06'2 4.1
2018-Jun-16 07:30N 47°21' W 003°08'0 0.0
2018-Jun-15 15:32N 47°21' W 003°09'1 8.7
2018-Jun-15 15:28N 47°22' W 003°08'2 4.1
2018-Jun-15 14:55N 47°22' W 003°05'3 7.4
2018-Jun-15 14:30N 47°24' W 003°01'2 3.6
2018-Jun-15 14:00N 47°24' W 002°59'2 3.5
2018-Jun-15 13:28N 47°24' W 002°56'3 0.7
2018-Jun-15 08:56N 47°23' W 003°01'1 2.8
2018-Jun-15 08:25N 47°23' W 003°03'2 5.3
2018-Jun-15 08:00N 47°22' W 003°06'2 4.7
2018-Jun-15 07:29N 47°21' W 003°09'  
2018-Jun-12 17:00N 47°21' W 003°09'2 4.9
2018-Jun-12 16:29N 47°24' W 003°07'3 6.6
2018-Jun-12 16:00N 47°27' W 003°07'2 4.1
2018-Jun-12 15:29N 47°29' W 003°07'2 4.2
2018-Jun-12 14:57N 47°26' W 003°07'2 5.5
2018-Jun-12 14:30N 47°24' W 003°09'3 6.0
2018-Jun-12 14:00N 47°21' W 003°09'0 0.0
2018-Jun-10 16:26N 47°21' W 003°09'1 2.3
2018-Jun-10 16:00N 47°21' W 003°08'2 3.5
2018-Jun-10 15:23N 47°20' W 003°05'2 5.9
2018-Jun-10 14:58N 47°22' W 003°03'3 7.3
2018-Jun-10 14:30N 47°24' W 002°60'2 0.5
2018-Jun-10 09:50N 47°23' W 002°57'1 2.8
2018-Jun-10 09:28N 47°22' W 002°57'2 4.8
2018-Jun-10 08:58N 47°23' W 002°60'3 5.4
2018-Jun-10 08:30N 47°23' W 003°03'4 7.3
2018-Jun-10 08:00N 47°21' W 003°08'1 0.0
2018-Jun-08 16:06N 47°21' W 003°09'0 2.5
2018-Jun-08 16:00N 47°21' W 003°09'1 2.4
2018-Jun-08 15:31N 47°22' W 003°08'2 3.8
2018-Jun-08 15:00N 47°22' W 003°05'3 5.0
2018-Jun-08 14:30N 47°23' W 003°02'1 2.0
2018-Jun-08 14:00N 47°24' W 003°01'2 4.0
2018-Jun-08 13:30N 47°24' W 002°58'1 1.6
2018-Jun-08 12:57N 47°23' W 002°57'0 0.0
2018-Jun-08 12:12N 47°23' W 002°57'0 0.0
2018-Jun-08 12:00N 47°23' W 002°57'0 0.0
2018-Jun-08 11:30N 47°23' W 002°57'0 0.0
2018-Jun-08 10:59N 47°23' W 002°57'0 0.0
2018-Jun-08 10:29N 47°23' W 002°57'0 0.0
2018-Jun-08 09:59N 47°23' W 002°57'2 3.9
2018-Jun-08 09:23N 47°21' W 002°59'1 2.7
2018-Jun-08 08:59N 47°22' W 003°00'2 4.0
2018-Jun-08 08:30N 47°22' W 003°03'2 4.8
2018-Jun-08 08:00N 47°22' W 003°06'2 3.6
2018-Jun-08 07:30N 47°21' W 003°09'0 0.5
2018-Jun-08 06:55N 47°21' W 003°09'0 0.1
2018-Jun-08 06:26N 47°21' W 003°09'  
Track history (hours):
 
Tides and Currents Weather Stations Pressure Air Temp Water Temp Dewpoint Dewpoint Depression Visibility Wind Speed Wind Dir Waves Ship Positions

Tangata Manu

Last reported at 2018-Jun-16 15:38 UTC. Time now 2018-Jun-18 23:17 UTC.
Position N 47°21' W 003°09'.

Length 13 m.

Type: Pleasure craft. MMSI: 227458660.

Date/timePositionNaut miles runAvg speedWind from/ knotsBaromVisibWave heightAir tempDewpointWater temp
2018-Jun-16 15:38N 47°21' W 003°09'1 5.0
2018-Jun-16 15:29N 47°21' W 003°08'2 5.0
2018-Jun-16 15:00N 47°20' W 003°05'4 6.8
2018-Jun-16 14:23N 47°24' W 003°02'1 2.3
2018-Jun-16 13:57N 47°24' W 003°01'2 4.6
2018-Jun-16 13:26N 47°24' W 002°58'0 0.1
2018-Jun-16 10:46N 47°24' W 002°57'0 0.0
2018-Jun-16 10:25N 47°24' W 002°57'0 0.0
2018-Jun-16 09:55N 47°24' W 002°57'1 1.8
2018-Jun-16 09:30N 47°23' W 002°56'3 3.1
2018-Jun-16 08:35N 47°22' W 002°60'1 7.3
2018-Jun-16 08:30N 47°22' W 003°01'3 6.9
2018-Jun-16 08:00N 47°22' W 003°06'2 4.1
2018-Jun-16 07:30N 47°21' W 003°08'0 0.0
2018-Jun-15 15:32N 47°21' W 003°09'1 8.7
2018-Jun-15 15:28N 47°22' W 003°08'2 4.1
2018-Jun-15 14:55N 47°22' W 003°05'3 7.4
2018-Jun-15 14:30N 47°24' W 003°01'2 3.6
2018-Jun-15 14:00N 47°24' W 002°59'2 3.5
2018-Jun-15 13:28N 47°24' W 002°56'3 0.7
2018-Jun-15 08:56N 47°23' W 003°01'1 2.8
2018-Jun-15 08:25N 47°23' W 003°03'2 5.3
2018-Jun-15 08:00N 47°22' W 003°06'2 4.7
2018-Jun-15 07:29N 47°21' W 003°09'  
2018-Jun-12 17:00N 47°21' W 003°09'2 4.9
2018-Jun-12 16:29N 47°24' W 003°07'3 6.6
2018-Jun-12 16:00N 47°27' W 003°07'2 4.1
2018-Jun-12 15:29N 47°29' W 003°07'2 4.2
2018-Jun-12 14:57N 47°26' W 003°07'2 5.5
2018-Jun-12 14:30N 47°24' W 003°09'3 6.0
2018-Jun-12 14:00N 47°21' W 003°09'0 0.0
2018-Jun-10 16:26N 47°21' W 003°09'1 2.3
2018-Jun-10 16:00N 47°21' W 003°08'2 3.5
2018-Jun-10 15:23N 47°20' W 003°05'2 5.9
2018-Jun-10 14:58N 47°22' W 003°03'3 7.3
2018-Jun-10 14:30N 47°24' W 002°60'2 0.5
2018-Jun-10 09:50N 47°23' W 002°57'1 2.8
2018-Jun-10 09:28N 47°22' W 002°57'2 4.8
2018-Jun-10 08:58N 47°23' W 002°60'3 5.4
2018-Jun-10 08:30N 47°23' W 003°03'4 7.3
2018-Jun-10 08:00N 47°21' W 003°08'1 0.0
2018-Jun-08 16:06N 47°21' W 003°09'0 2.5
2018-Jun-08 16:00N 47°21' W 003°09'1 2.4
2018-Jun-08 15:31N 47°22' W 003°08'2 3.8
2018-Jun-08 15:00N 47°22' W 003°05'3 5.0
2018-Jun-08 14:30N 47°23' W 003°02'1 2.0
2018-Jun-08 14:00N 47°24' W 003°01'2 4.0
2018-Jun-08 13:30N 47°24' W 002°58'1 1.6
2018-Jun-08 12:57N 47°23' W 002°57'0 0.0
2018-Jun-08 12:12N 47°23' W 002°57'0 0.0
2018-Jun-08 12:00N 47°23' W 002°57'0 0.0
2018-Jun-08 11:30N 47°23' W 002°57'0 0.0
2018-Jun-08 10:59N 47°23' W 002°57'0 0.0
2018-Jun-08 10:29N 47°23' W 002°57'0 0.0
2018-Jun-08 09:59N 47°23' W 002°57'2 3.9
2018-Jun-08 09:23N 47°21' W 002°59'1 2.7
2018-Jun-08 08:59N 47°22' W 003°00'2 4.0
2018-Jun-08 08:30N 47°22' W 003°03'2 4.8
2018-Jun-08 08:00N 47°22' W 003°06'2 3.6
2018-Jun-08 07:30N 47°21' W 003°09'0 0.5
2018-Jun-08 06:55N 47°21' W 003°09'0 0.1
2018-Jun-08 06:26N 47°21' W 003°09'  

Dump ship's entire track history